createdAt,value
2022-12-23T00:00:45.391Z,5.04
2022-12-23T00:03:12.717Z,5.00
2022-12-23T00:05:40.850Z,4.95
2022-12-23T00:08:08.636Z,4.96
2022-12-23T00:10:39.898Z,4.91
2022-12-23T00:13:26.354Z,4.87
2022-12-23T00:16:08.484Z,4.82
2022-12-23T00:18:35.860Z,4.78
2022-12-23T00:21:09.330Z,4.70
2022-12-23T00:23:39.945Z,4.69
2022-12-23T00:26:07.925Z,4.68
2022-12-23T00:28:35.007Z,4.66
2022-12-23T00:31:07.329Z,4.67
2022-12-23T00:33:43.184Z,4.65
2022-12-23T00:36:16.850Z,4.63
2022-12-23T00:39:02.565Z,4.61
2022-12-23T00:41:49.059Z,4.58
2022-12-23T00:44:16.197Z,4.58
2022-12-23T00:46:43.402Z,4.42
2022-12-23T00:49:31.789Z,4.59
2022-12-23T00:51:59.291Z,4.61
2022-12-23T00:54:26.687Z,4.63
2022-12-23T00:56:54.218Z,4.60
2022-12-23T00:59:21.419Z,4.61
2022-12-23T01:02:07.127Z,4.61
2022-12-23T01:04:53.067Z,4.53
2022-12-23T01:07:21.103Z,4.59
2022-12-23T01:09:48.315Z,4.58
2022-12-23T01:12:15.459Z,4.61
2022-12-23T01:14:42.536Z,4.60
2022-12-23T01:17:09.840Z,4.59
2022-12-23T01:19:37.127Z,4.34
2022-12-23T01:22:04.297Z,4.57
2022-12-23T01:24:32.474Z,4.56
2022-12-23T01:26:59.990Z,4.57
2022-12-23T01:29:27.807Z,4.52
2022-12-23T01:31:54.971Z,4.53
2022-12-23T01:34:22.071Z,4.54
2022-12-23T01:36:49.122Z,4.48
2022-12-23T01:39:16.217Z,4.52
2022-12-23T01:42:02.181Z,4.51
2022-12-23T01:44:54.003Z,4.52
2022-12-23T01:47:30.343Z,4.48
2022-12-23T01:50:06.066Z,4.53
2022-12-23T01:52:38.987Z,4.54
2022-12-23T01:55:06.788Z,4.55
2022-12-23T01:57:36.918Z,4.54
2022-12-23T02:00:25.372Z,4.57
2022-12-23T02:03:11.152Z,4.56
2022-12-23T02:05:38.750Z,4.54
2022-12-23T02:08:25.048Z,4.53
2022-12-23T02:11:10.849Z,4.55
2022-12-23T02:14:27.178Z,4.53
2022-12-23T02:17:06.133Z,4.54
2022-12-23T02:19:33.187Z,4.53
2022-12-23T02:23:02.062Z,4.50
2022-12-23T02:25:38.178Z,4.47
2022-12-23T02:28:23.320Z,4.42
2022-12-23T02:31:02.187Z,4.40
2022-12-23T02:34:02.233Z,4.32
2022-12-23T02:36:39.219Z,4.30
2022-12-23T02:39:14.828Z,4.28
2022-12-23T02:41:48.001Z,4.22
2022-12-23T02:44:23.713Z,4.20
2022-12-23T02:46:57.330Z,4.17
2022-12-23T02:49:30.978Z,3.90
2022-12-23T02:52:03.850Z,4.13
2022-12-23T02:54:35.444Z,4.08
2022-12-23T02:57:06.378Z,4.11
2022-12-23T02:59:45.856Z,4.06
2022-12-23T03:02:13.010Z,4.08
2022-12-23T03:04:42.470Z,4.06
2022-12-23T03:07:31.610Z,4.09
2022-12-23T03:10:13.762Z,4.09
2022-12-23T03:13:02.126Z,4.08
2022-12-23T03:15:47.646Z,4.06
2022-12-23T03:18:39.685Z,4.02
2022-12-23T03:21:13.223Z,4.02
2022-12-23T03:23:55.512Z,3.95
2022-12-23T03:26:31.247Z,3.97
2022-12-23T03:29:09.776Z,3.96
2022-12-23T03:31:38.322Z,3.86
2022-12-23T03:34:24.521Z,3.95
2022-12-23T03:36:56.320Z,3.95
2022-12-23T03:39:30.057Z,3.95
2022-12-23T03:42:02.341Z,3.92
2022-12-23T03:44:35.252Z,3.97
2022-12-23T03:47:08.249Z,3.99
2022-12-23T03:49:41.966Z,4.01
2022-12-23T03:52:20.885Z,4.03
2022-12-23T03:54:58.164Z,4.06
2022-12-23T03:57:48.958Z,4.03
2022-12-23T04:00:16.185Z,4.09
2022-12-23T04:03:00.285Z,4.09
2022-12-23T04:05:35.308Z,4.14
2022-12-23T04:08:05.157Z,4.15
2022-12-23T04:10:32.442Z,4.15
2022-12-23T04:12:59.818Z,4.18
2022-12-23T04:15:28.111Z,4.17
2022-12-23T04:17:57.992Z,4.21
2022-12-23T04:20:25.666Z,4.22
2022-12-23T04:22:52.713Z,4.19
2022-12-23T04:25:19.835Z,4.24
2022-12-23T04:27:46.949Z,4.21
2022-12-23T04:30:14.359Z,4.23
2022-12-23T04:32:42.657Z,4.24
2022-12-23T04:35:10.574Z,4.23
2022-12-23T04:37:38.489Z,4.26
2022-12-23T04:40:06.362Z,4.29
2022-12-23T04:42:33.476Z,4.32
2022-12-23T04:45:00.589Z,4.34
2022-12-23T04:47:27.973Z,4.36
2022-12-23T04:49:54.972Z,4.34
2022-12-23T04:52:22.306Z,4.38
2022-12-23T04:54:49.406Z,4.38
2022-12-23T04:57:16.602Z,4.41
2022-12-23T04:59:43.685Z,4.42
2022-12-23T05:02:11.397Z,4.42
2022-12-23T05:04:38.677Z,4.42
2022-12-23T05:07:05.752Z,4.44
2022-12-23T05:09:32.854Z,4.45
2022-12-23T05:11:59.933Z,4.46
2022-12-23T05:14:26.985Z,4.46
2022-12-23T05:16:54.135Z,4.47
2022-12-23T05:19:21.275Z,4.43
2022-12-23T05:21:48.380Z,4.48
2022-12-23T05:24:15.463Z,4.44
2022-12-23T05:26:47.629Z,4.49
2022-12-23T05:29:15.886Z,4.50
2022-12-23T05:31:43.374Z,4.42
2022-12-23T05:34:10.642Z,4.51
2022-12-23T05:36:37.715Z,4.52
2022-12-23T05:39:04.928Z,4.50
2022-12-23T05:41:31.967Z,4.50
2022-12-23T05:43:59.002Z,4.55
2022-12-23T05:46:27.140Z,4.54
2022-12-23T05:48:54.735Z,4.55
2022-12-23T05:51:21.820Z,4.58
2022-12-23T05:53:48.942Z,4.60
2022-12-23T05:56:16.005Z,4.60
2022-12-23T05:58:43.097Z,4.56
2022-12-23T06:01:10.309Z,4.57
2022-12-23T06:03:37.592Z,4.60
2022-12-23T06:06:04.981Z,4.61
2022-12-23T06:08:32.263Z,4.61
2022-12-23T06:11:00.065Z,4.63
2022-12-23T06:13:27.137Z,4.60
2022-12-23T06:15:54.131Z,4.61
2022-12-23T06:18:21.152Z,4.66
2022-12-23T06:20:48.900Z,4.65
2022-12-23T06:23:16.079Z,4.64
2022-12-23T06:25:43.246Z,4.67
2022-12-23T06:28:10.357Z,4.67
2022-12-23T06:30:37.325Z,4.67
2022-12-23T06:33:04.393Z,4.68
2022-12-23T06:35:31.559Z,4.69
2022-12-23T06:37:58.647Z,4.69
2022-12-23T06:40:25.721Z,4.70
2022-12-23T06:42:52.838Z,4.70
2022-12-23T06:45:19.993Z,4.72
2022-12-23T06:47:47.139Z,4.69
2022-12-23T06:50:14.183Z,4.72
2022-12-23T06:52:41.259Z,4.74
2022-12-23T06:55:08.581Z,4.74
2022-12-23T06:57:35.675Z,4.75
2022-12-23T07:00:05.051Z,4.72
2022-12-23T07:02:32.284Z,4.75
2022-12-23T07:04:59.341Z,4.76
2022-12-23T07:07:26.451Z,4.77
2022-12-23T07:09:53.503Z,4.79
2022-12-23T07:12:20.721Z,4.75
2022-12-23T07:14:47.811Z,4.81
2022-12-23T07:17:14.964Z,4.83
2022-12-23T07:19:42.016Z,4.80
2022-12-23T07:22:10.475Z,4.82
2022-12-23T07:24:37.989Z,4.84
2022-12-23T07:27:05.192Z,4.84
2022-12-23T07:29:32.258Z,4.86
2022-12-23T07:31:59.553Z,4.84
2022-12-23T07:34:26.684Z,4.84
2022-12-23T07:36:54.103Z,4.89
2022-12-23T07:39:21.289Z,4.89
2022-12-23T07:41:48.328Z,4.85
2022-12-23T07:44:15.577Z,4.91
2022-12-23T07:46:42.989Z,4.89
2022-12-23T07:49:10.367Z,4.93
2022-12-23T07:51:37.428Z,4.93
2022-12-23T07:54:04.502Z,4.88
2022-12-23T07:56:31.620Z,4.93
2022-12-23T07:58:58.790Z,4.89
2022-12-23T08:01:25.934Z,4.92
2022-12-23T08:03:53.210Z,4.91
2022-12-23T08:06:20.424Z,4.90
2022-12-23T08:08:47.478Z,4.90
2022-12-23T08:11:15.960Z,4.87
2022-12-23T08:13:45.091Z,4.88
2022-12-23T08:16:12.998Z,4.89
2022-12-23T08:18:42.096Z,4.88
2022-12-23T08:21:13.749Z,4.85
2022-12-23T08:23:42.295Z,4.83
2022-12-23T08:26:21.598Z,4.82
2022-12-23T08:28:49.757Z,4.77
2022-12-23T08:31:25.754Z,4.78
2022-12-23T08:33:55.514Z,4.76
2022-12-23T08:36:28.033Z,4.71
2022-12-23T08:38:56.390Z,4.77
2022-12-23T08:41:27.276Z,4.75
2022-12-23T08:43:54.585Z,4.69
2022-12-23T08:46:22.428Z,4.73
2022-12-23T08:48:50.203Z,4.65
2022-12-23T08:51:19.253Z,4.65
2022-12-23T08:53:47.111Z,4.63
2022-12-23T08:56:20.320Z,4.61
2022-12-23T08:58:48.988Z,4.61
2022-12-23T09:01:17.848Z,4.62
2022-12-23T09:03:45.641Z,4.62
2022-12-23T09:06:15.622Z,4.64
2022-12-23T09:08:43.357Z,4.63
2022-12-23T09:11:11.944Z,4.67
2022-12-23T09:13:39.298Z,4.65
2022-12-23T09:16:07.959Z,4.70
2022-12-23T09:18:36.037Z,4.73
2022-12-23T09:21:08.344Z,4.74
2022-12-23T09:23:35.514Z,4.71
2022-12-23T09:26:06.139Z,4.73
2022-12-23T09:28:33.277Z,4.72
2022-12-23T09:31:10.232Z,4.74
2022-12-23T09:33:37.508Z,4.73
2022-12-23T09:36:05.536Z,4.70
2022-12-23T09:38:33.579Z,4.73
2022-12-23T09:41:15.319Z,4.73
2022-12-23T09:44:15.036Z,4.73
2022-12-23T09:46:54.317Z,4.75
2022-12-23T09:49:22.893Z,4.75
2022-12-23T09:51:56.018Z,4.76
2022-12-23T09:54:26.312Z,4.77
2022-12-23T09:56:53.343Z,4.77
2022-12-23T09:59:26.661Z,4.80
2022-12-23T10:02:09.204Z,4.79
2022-12-23T10:05:00.568Z,4.79
2022-12-23T10:07:44.410Z,4.81
2022-12-23T10:10:57.543Z,4.83
2022-12-23T10:13:29.901Z,4.86
2022-12-23T10:16:04.505Z,4.90
2022-12-23T10:18:46.472Z,4.93
2022-12-23T10:21:25.323Z,4.97
2022-12-23T10:23:54.411Z,4.97
2022-12-23T10:26:30.169Z,5.01
2022-12-23T10:29:19.682Z,5.03
2022-12-23T10:31:53.631Z,5.06
2022-12-23T10:34:36.603Z,5.07
2022-12-23T10:37:17.585Z,5.10
2022-12-23T10:40:02.470Z,5.10
2022-12-23T10:43:00.588Z,5.11
2022-12-23T10:45:27.574Z,5.11
2022-12-23T10:48:24.007Z,5.10
2022-12-23T10:51:01.444Z,5.11
2022-12-23T10:53:40.782Z,5.12
2022-12-23T10:56:08.806Z,5.10
2022-12-23T10:58:41.969Z,5.14
2022-12-23T11:01:17.544Z,5.15
2022-12-23T11:04:00.320Z,5.16
2022-12-23T11:06:34.885Z,5.17
2022-12-23T11:09:05.535Z,5.17
2022-12-23T11:12:02.216Z,5.13
2022-12-23T11:14:50.021Z,5.18
2022-12-23T11:17:23.700Z,5.17
2022-12-23T11:20:15.363Z,5.19
2022-12-23T11:22:51.610Z,5.17
2022-12-23T11:25:30.609Z,5.21
2022-12-23T11:28:03.271Z,5.22
2022-12-23T11:30:33.306Z,5.25
2022-12-23T11:33:00.479Z,5.24
2022-12-23T11:35:31.812Z,5.28
2022-12-23T11:38:01.123Z,5.29
2022-12-23T11:40:34.180Z,5.31
2022-12-23T11:43:04.256Z,5.33
2022-12-23T11:45:36.432Z,5.31
2022-12-23T11:48:06.139Z,5.34
2022-12-23T11:50:37.503Z,5.37
2022-12-23T11:53:13.674Z,5.37
2022-12-23T11:55:48.523Z,5.38
2022-12-23T11:58:19.956Z,5.35
2022-12-23T12:00:58.976Z,5.38
2022-12-23T12:03:36.172Z,5.38
2022-12-23T12:06:06.195Z,5.37
2022-12-23T12:08:38.631Z,5.33
2022-12-23T12:11:17.127Z,5.18
2022-12-23T12:13:48.181Z,5.36
2022-12-23T12:16:30.749Z,5.38
2022-12-23T12:19:04.920Z,5.42
2022-12-23T12:21:37.591Z,5.37
2022-12-23T12:24:19.316Z,5.43
2022-12-23T12:26:52.639Z,5.31
2022-12-23T12:29:43.894Z,5.41
2022-12-23T12:32:33.519Z,5.41
2022-12-23T12:35:17.248Z,5.42
2022-12-23T12:37:53.907Z,5.42
2022-12-23T12:40:26.530Z,5.42
2022-12-23T12:43:19.291Z,5.40
2022-12-23T12:45:53.409Z,5.43
2022-12-23T12:48:34.770Z,5.46
2022-12-23T12:51:12.836Z,5.48
2022-12-23T12:54:09.413Z,5.49
2022-12-23T12:56:39.604Z,5.49
2022-12-23T12:59:06.868Z,5.42
2022-12-23T13:01:48.462Z,5.44
2022-12-23T13:04:21.648Z,5.43
2022-12-23T13:07:02.169Z,5.43
2022-12-23T13:09:37.214Z,5.43
2022-12-23T13:12:50.119Z,5.41
2022-12-23T13:15:38.750Z,5.34
2022-12-23T13:18:16.450Z,5.40
2022-12-23T13:20:51.525Z,5.38
2022-12-23T13:23:44.463Z,5.38
2022-12-23T13:26:23.847Z,5.38
2022-12-23T13:29:14.794Z,5.36
2022-12-23T13:31:48.932Z,5.38
2022-12-23T13:34:40.152Z,5.37
2022-12-23T13:37:27.884Z,5.34
2022-12-23T13:40:14.675Z,5.33
2022-12-23T13:42:49.246Z,5.33
2022-12-23T13:45:18.616Z,5.34
2022-12-23T13:47:48.471Z,5.33
2022-12-23T13:50:33.591Z,5.34
2022-12-23T13:53:06.388Z,5.36
2022-12-23T13:56:12.126Z,5.35
2022-12-23T13:58:40.813Z,5.34
2022-12-23T14:01:08.458Z,5.32
2022-12-23T14:03:38.926Z,5.30
2022-12-23T14:06:22.328Z,5.29
2022-12-23T14:08:51.078Z,5.28
2022-12-23T14:11:33.592Z,5.27
2022-12-23T14:14:05.001Z,5.25
2022-12-23T14:16:50.926Z,5.24
2022-12-23T14:19:42.788Z,5.23
2022-12-23T14:22:39.509Z,5.23
2022-12-23T14:25:21.859Z,5.20
2022-12-23T14:28:07.608Z,5.20
2022-12-23T14:30:40.465Z,5.19
2022-12-23T14:33:28.068Z,5.17
2022-12-23T14:35:56.548Z,5.16
2022-12-23T14:38:29.413Z,5.15
2022-12-23T14:41:20.017Z,5.13
2022-12-23T14:43:47.070Z,5.11
2022-12-23T14:46:35.917Z,5.10
2022-12-23T14:49:36.821Z,5.11
2022-12-23T14:51:51.706Z,5.09
2022-12-23T14:54:38.430Z,5.04
2022-12-23T14:57:17.182Z,5.04
2022-12-23T15:00:07.467Z,5.07
2022-12-23T15:02:36.709Z,5.02
2022-12-23T15:05:04.960Z,5.01
2022-12-23T15:07:39.123Z,5.02
2022-12-23T15:10:06.681Z,5.01
2022-12-23T15:12:36.963Z,5.02
2022-12-23T15:15:06.113Z,4.97
2022-12-23T15:17:35.984Z,4.96
2022-12-23T15:20:08.344Z,4.98
2022-12-23T15:22:36.671Z,4.95
2022-12-23T15:25:05.672Z,4.99
2022-12-23T15:27:36.115Z,4.99
2022-12-23T15:30:03.583Z,4.97
2022-12-23T15:32:30.785Z,5.00
2022-12-23T15:35:06.627Z,5.01
2022-12-23T15:37:34.904Z,4.99
2022-12-23T15:40:12.535Z,5.02
2022-12-23T15:42:47.745Z,5.02
2022-12-23T15:45:37.412Z,5.03
2022-12-23T15:48:07.330Z,5.01
2022-12-23T15:50:42.015Z,5.00
2022-12-23T15:53:13.190Z,5.04
2022-12-23T15:55:41.549Z,5.02
2022-12-23T15:58:15.759Z,5.04
2022-12-23T16:00:51.075Z,5.01
2022-12-23T16:03:28.119Z,5.03
2022-12-23T16:05:55.612Z,5.05
2022-12-23T16:08:29.584Z,5.05
2022-12-23T16:11:16.252Z,5.05
2022-12-23T16:14:22.321Z,5.02
2022-12-23T16:16:52.621Z,5.02
2022-12-23T16:19:48.845Z,5.02
2022-12-23T16:22:36.422Z,5.01
2022-12-23T16:25:16.531Z,5.02
2022-12-23T16:28:07.919Z,5.02
2022-12-23T16:30:38.510Z,5.02
2022-12-23T16:33:22.765Z,5.02
2022-12-23T16:35:49.878Z,5.03
2022-12-23T16:38:18.416Z,5.03
2022-12-23T16:40:48.079Z,5.03
2022-12-23T16:43:16.348Z,5.04
2022-12-23T16:45:45.108Z,5.04
2022-12-23T16:48:41.447Z,5.04
2022-12-23T16:51:14.517Z,5.03
2022-12-23T16:53:41.673Z,5.02
2022-12-23T16:56:16.957Z,4.99
2022-12-23T16:58:44.991Z,5.03
2022-12-23T17:01:37.025Z,4.99
2022-12-23T17:04:05.020Z,5.00
2022-12-23T17:06:32.201Z,5.01
2022-12-23T17:08:59.443Z,5.01
2022-12-23T17:11:43.766Z,5.00
2022-12-23T17:14:17.490Z,5.00
2022-12-23T17:16:46.134Z,5.01
2022-12-23T17:19:13.793Z,5.01
2022-12-23T17:21:43.329Z,5.01
2022-12-23T17:24:17.017Z,5.00
2022-12-23T17:26:44.260Z,4.98
2022-12-23T17:29:12.987Z,5.02
2022-12-23T17:31:41.883Z,4.79
2022-12-23T17:34:17.539Z,5.02
2022-12-23T17:36:50.029Z,4.99
2022-12-23T17:39:18.735Z,5.01
2022-12-23T17:41:46.293Z,5.02
2022-12-23T17:44:17.508Z,4.98
2022-12-23T17:46:45.825Z,4.98
2022-12-23T17:49:13.114Z,5.01
2022-12-23T17:51:41.823Z,5.01
2022-12-23T17:54:24.409Z,5.02
2022-12-23T17:56:52.929Z,4.98
2022-12-23T17:59:20.713Z,5.02
2022-12-23T18:01:48.032Z,4.96
2022-12-23T18:04:15.641Z,4.97
2022-12-23T18:06:42.788Z,5.03
2022-12-23T18:09:09.913Z,5.03
2022-12-23T18:11:44.012Z,5.00
2022-12-23T18:14:28.198Z,5.03
2022-12-23T18:16:55.486Z,5.03
2022-12-23T18:19:22.670Z,5.02
2022-12-23T18:21:51.567Z,5.00
2022-12-23T18:24:19.232Z,4.95
2022-12-23T18:26:46.356Z,5.02
2022-12-23T18:29:13.638Z,5.02
2022-12-23T18:31:52.105Z,5.02
2022-12-23T18:34:20.653Z,5.02
2022-12-23T18:36:48.704Z,5.02
2022-12-23T18:39:15.929Z,5.02
2022-12-23T18:41:43.017Z,5.01
2022-12-23T18:44:21.265Z,5.00
2022-12-23T18:46:49.359Z,5.01
2022-12-23T18:49:16.693Z,5.02
2022-12-23T18:51:43.837Z,5.01
2022-12-23T18:54:17.254Z,4.83
2022-12-23T18:56:44.727Z,4.99
2022-12-23T18:59:27.156Z,4.98
2022-12-23T19:01:56.969Z,4.97
2022-12-23T19:04:24.282Z,4.95
2022-12-23T19:06:51.525Z,4.93
2022-12-23T19:09:21.584Z,4.98
2022-12-23T19:11:51.180Z,4.97
2022-12-23T19:14:18.615Z,4.97
2022-12-23T19:16:51.211Z,4.98
2022-12-23T19:19:19.674Z,4.98
2022-12-23T19:21:46.889Z,4.99
2022-12-23T19:24:14.252Z,4.99
2022-12-23T19:26:41.399Z,4.98
2022-12-23T19:29:09.030Z,4.96
2022-12-23T19:31:36.119Z,4.96
2022-12-23T19:34:03.422Z,4.95
2022-12-23T19:36:31.270Z,4.97
2022-12-23T19:38:58.718Z,4.97
2022-12-23T19:41:25.947Z,4.98
2022-12-23T19:43:53.028Z,4.95
2022-12-23T19:46:20.190Z,5.00
2022-12-23T19:48:52.587Z,5.01
2022-12-23T19:51:20.522Z,5.02
2022-12-23T19:53:50.432Z,5.00
2022-12-23T19:56:21.377Z,5.01
2022-12-23T19:58:49.585Z,5.00
2022-12-23T20:01:25.656Z,4.99
2022-12-23T20:03:55.287Z,4.97
2022-12-23T20:06:23.925Z,5.00
2022-12-23T20:08:55.042Z,4.97
2022-12-23T20:11:26.999Z,5.00
2022-12-23T20:13:57.427Z,5.00
2022-12-23T20:16:24.627Z,4.96
2022-12-23T20:18:52.155Z,4.98
2022-12-23T20:21:19.802Z,4.99
2022-12-23T20:23:46.831Z,5.02
2022-12-23T20:26:15.067Z,5.02
2022-12-23T20:28:42.566Z,5.01
2022-12-23T20:31:22.659Z,5.01
2022-12-23T20:33:51.512Z,5.01
2022-12-23T20:36:22.223Z,5.00
2022-12-23T20:38:50.613Z,5.00
2022-12-23T20:41:21.383Z,4.94
2022-12-23T20:44:23.382Z,4.94
2022-12-23T20:46:36.310Z,4.92
2022-12-23T20:49:04.105Z,4.96
2022-12-23T20:51:31.209Z,4.95
2022-12-23T20:54:01.469Z,4.95
2022-12-23T20:56:29.531Z,4.93
2022-12-23T20:59:01.754Z,4.92
2022-12-23T21:01:38.363Z,4.92
2022-12-23T21:04:09.194Z,4.92
2022-12-23T21:06:36.676Z,4.87
2022-12-23T21:09:06.058Z,4.88
2022-12-23T21:11:37.303Z,4.88
2022-12-23T21:14:07.217Z,4.93
2022-12-23T21:16:36.099Z,4.92
2022-12-23T21:19:03.912Z,4.88
2022-12-23T21:21:32.141Z,4.86
2022-12-23T21:24:01.756Z,4.80
2022-12-23T21:26:30.850Z,4.84
2022-12-23T21:29:00.224Z,4.84
2022-12-23T21:31:28.908Z,4.85
2022-12-23T21:33:56.533Z,4.82
2022-12-23T21:36:26.689Z,4.85
2022-12-23T21:38:53.904Z,4.81
2022-12-23T21:41:23.976Z,4.80
2022-12-23T21:43:51.811Z,4.79
2022-12-23T21:46:22.491Z,4.80
2022-12-23T21:48:50.672Z,4.79
2022-12-23T21:51:39.116Z,4.75
2022-12-23T21:54:08.652Z,4.76
2022-12-23T21:56:35.960Z,4.77
2022-12-23T21:59:06.616Z,4.77
2022-12-23T22:01:34.085Z,4.69
2022-12-23T22:04:01.334Z,4.74
2022-12-23T22:06:34.067Z,4.77
2022-12-23T22:09:01.147Z,4.72
2022-12-23T22:11:31.280Z,4.72
2022-12-23T22:14:00.166Z,4.73
2022-12-23T22:16:29.335Z,4.70
2022-12-23T22:18:58.194Z,4.69
2022-12-23T22:21:27.433Z,4.69
2022-12-23T22:23:55.411Z,4.67
2022-12-23T22:26:26.274Z,4.65
2022-12-23T22:28:55.577Z,4.63
2022-12-23T22:31:44.298Z,4.55
2022-12-23T22:34:18.254Z,4.58
2022-12-23T22:36:45.841Z,4.54
2022-12-23T22:39:21.028Z,4.57
2022-12-23T22:41:50.448Z,4.55
2022-12-23T22:44:18.004Z,4.52
2022-12-23T22:46:45.448Z,4.55
2022-12-23T22:49:13.813Z,4.55
2022-12-23T22:51:41.898Z,4.57
2022-12-23T22:54:09.192Z,4.57
2022-12-23T22:56:36.673Z,4.61
2022-12-23T22:59:05.067Z,4.61
2022-12-23T23:01:34.739Z,4.61
2022-12-23T23:04:03.468Z,4.59
2022-12-23T23:06:38.816Z,4.57
2022-12-23T23:09:08.788Z,4.58
2022-12-23T23:11:36.260Z,4.58
2022-12-23T23:14:04.179Z,4.57
2022-12-23T23:16:32.007Z,4.58
2022-12-23T23:19:00.115Z,4.55
2022-12-23T23:21:27.187Z,4.34
2022-12-23T23:23:54.277Z,4.56
2022-12-23T23:26:22.602Z,4.59
2022-12-23T23:28:49.704Z,4.59
2022-12-23T23:31:41.032Z,4.59
2022-12-23T23:34:03.872Z,4.53
2022-12-23T23:36:30.983Z,4.60
2022-12-23T23:38:59.087Z,4.62
2022-12-23T23:41:26.203Z,4.62
2022-12-23T23:43:53.366Z,4.62
2022-12-23T23:46:20.555Z,4.61
2022-12-23T23:48:47.816Z,4.63
2022-12-23T23:51:15.239Z,4.62
2022-12-23T23:53:42.322Z,4.63
2022-12-23T23:56:09.705Z,4.64
2022-12-23T23:58:37.491Z,4.65
